Time;durP1;ratioP1;P1;durP2;ratioP2;P2;SDS_P1;SDS_P2;PMS_P1;PMS_P2;Temp;Humidity;BMP_temperature;BMP_pressure;BME280_temperature;BME280_humidity;BME280_pressure;Samples;Min_cycle;Max_cycle;Signal;HPM_P1;HPM_P2
2023/04/27 00:02:02;;;;;;;13.02;4.60;;;;;;;13.55;60.41;101186.66;5072964;28;20071;-68
2023/04/27 00:04:30;;;;;;;10.38;4.00;;;;;;;13.74;60.14;101193.88;5055474;28;20048;-68
2023/04/27 00:06:58;;;;;;;11.77;4.70;;;;;;;13.86;59.81;101189.31;5055456;28;20063;-69
2023/04/27 00:09:25;;;;;;;9.43;4.45;;;;;;;13.79;60.09;101191.75;5055928;28;20080;-69
2023/04/27 00:11:53;;;;;;;10.35;4.90;;;;;;;13.81;60.05;101186.72;5065357;28;20047;-69
2023/04/27 00:14:20;;;;;;;11.95;5.10;;;;;;;13.76;60.03;101186.88;5073685;28;20079;-68
2023/04/27 00:16:47;;;;;;;13.13;5.63;;;;;;;13.63;60.71;101187.84;5054318;28;20048;-68
2023/04/27 00:19:15;;;;;;;10.85;5.28;;;;;;;13.76;60.54;101189.63;5073531;28;20061;-69
2023/04/27 00:21:42;;;;;;;14.10;5.13;;;;;;;13.76;60.41;101188.81;5071569;28;20048;-67
2023/04/27 00:24:10;;;;;;;14.10;5.57;;;;;;;13.71;60.15;101178.72;5073934;28;20056;-68
2023/04/27 00:26:37;;;;;;;10.02;5.05;;;;;;;13.48;61.23;101185.50;5070679;28;20071;-68
2023/04/27 00:29:04;;;;;;;13.30;6.15;;;;;;;13.58;61.04;101176.91;5072140;28;20052;-68
2023/04/27 00:31:32;;;;;;;19.85;5.82;;;;;;;13.57;61.00;101180.81;5072402;28;20056;-68
2023/04/27 00:33:59;;;;;;;10.18;5.25;;;;;;;13.61;61.05;101173.50;5073572;28;20067;-68
2023/04/27 00:36:27;;;;;;;8.73;5.07;;;;;;;13.66;60.92;101172.53;5070433;28;20051;-67
2023/04/27 00:38:54;;;;;;;15.75;6.20;;;;;;;13.65;61.10;101163.38;5071873;28;20044;-67
2023/04/27 00:41:21;;;;;;;13.85;5.90;;;;;;;13.62;61.15;101163.22;5070576;28;20039;-67
2023/04/27 00:43:49;;;;;;;11.65;5.40;;;;;;;13.64;61.36;101170.06;5073150;28;20068;-67
2023/04/27 00:46:18;;;;;;;15.32;6.05;;;;;;;13.65;61.27;101162.59;5070816;28;20040;-68
2023/04/27 00:48:45;;;;;;;14.00;6.20;;;;;;;13.78;60.86;101167.16;5071955;28;20530;-68
2023/04/27 00:51:13;;;;;;;11.88;5.25;;;;;;;14.00;59.82;101158.72;5070001;28;20048;-68
2023/04/27 00:53:40;;;;;;;13.73;5.40;;;;;;;13.97;59.91;101162.13;5073187;28;20048;-68
2023/04/27 00:56:08;;;;;;;10.63;5.00;;;;;;;13.80;60.29;101154.63;5070587;28;20047;-68
2023/04/27 00:58:35;;;;;;;10.40;4.78;;;;;;;13.83;60.05;101162.28;5054459;28;20056;-68
2023/04/27 01:01:02;;;;;;;12.23;5.18;;;;;;;13.88;60.05;101162.13;5036325;28;20114;-69
2023/04/27 01:03:31;;;;;;;14.65;5.63;;;;;;;13.69;60.81;101155.25;5055287;28;20055;-70
2023/04/27 01:06:00;;;;;;;11.60;5.32;;;;;;;13.77;60.52;101160.00;5054367;28;20063;-68
2023/04/27 01:08:28;;;;;;;10.93;5.07;;;;;;;13.68;60.86;101156.41;5054523;28;20048;-68
2023/04/27 01:10:56;;;;;;;12.32;4.60;;;;;;;13.56;61.13;101151.50;5071424;28;20051;-67
2023/04/27 01:13:23;;;;;;;10.57;4.40;;;;;;;13.67;60.66;101152.81;5073126;28;20144;-68
2023/04/27 01:15:50;;;;;;;14.05;5.65;;;;;;;13.71;60.54;101158.50;5071631;28;20075;-68
2023/04/27 01:18:18;;;;;;;13.18;5.00;;;;;;;13.73;61.03;101164.56;5071933;28;20083;-68
2023/04/27 01:20:45;;;;;;;10.45;4.97;;;;;;;13.92;60.36;101162.28;5071103;28;20400;-68
2023/04/27 01:23:13;;;;;;;11.30;4.93;;;;;;;13.99;60.08;101157.91;5072839;28;20068;-68
2023/04/27 01:25:43;;;;;;;12.88;4.75;;;;;;;13.67;60.28;101169.41;5070443;28;20048;-68
2023/04/27 01:28:11;;;;;;;11.13;5.35;;;;;;;13.84;60.26;101163.94;5038272;28;20060;-68
2023/04/27 01:30:38;;;;;;;12.55;4.35;;;;;;;13.81;60.04;101167.31;5070352;28;20056;-68
2023/04/27 01:33:06;;;;;;;10.93;5.18;;;;;;;13.88;59.84;101161.34;5070551;28;20052;-68
2023/04/27 01:35:33;;;;;;;11.43;5.00;;;;;;;13.82;60.17;101168.16;5074912;28;20044;-68
2023/04/27 01:38:01;;;;;;;11.95;4.07;;;;;;;13.59;60.31;101164.69;5059926;28;20060;-68
2023/04/27 01:40:28;;;;;;;14.35;4.85;;;;;;;13.75;59.81;101160.34;5057391;28;20072;-68
2023/04/27 01:42:56;;;;;;;10.10;5.03;;;;;;;13.68;60.95;101156.41;5075900;28;20115;-68
2023/04/27 01:45:23;;;;;;;11.13;5.40;;;;;;;13.62;61.70;101152.16;5060737;28;20583;-68
2023/04/27 01:47:51;;;;;;;10.50;5.32;;;;;;;13.60;61.76;101148.91;5075595;28;20067;-68
2023/04/27 01:50:19;;;;;;;12.20;5.10;;;;;;;13.51;62.53;101143.38;5059106;28;20057;-68
2023/04/27 01:52:47;;;;;;;12.25;5.47;;;;;;;13.32;63.23;101138.09;5056208;28;20119;-67
2023/04/27 01:55:14;;;;;;;10.90;5.13;;;;;;;13.39;63.70;101135.66;5062664;28;20053;-69
2023/04/27 01:57:42;;;;;;;14.13;5.70;;;;;;;13.14;64.21;101132.84;5073907;28;20052;-68
2023/04/27 02:00:11;;;;;;;12.90;5.68;;;;;;;13.38;63.66;101136.00;5073706;28;20535;-68
2023/04/27 02:02:49;;;;;;;15.10;5.63;;;;;;;13.48;63.37;101138.44;5066604;28;20040;-68
2023/04/27 02:05:18;;;;;;;11.75;5.40;;;;;;;13.36;63.64;101141.84;5055412;28;20049;-68
2023/04/27 02:07:46;;;;;;;12.77;5.63;;;;;;;13.51;63.14;101135.06;5040688;28;20515;-67
2023/04/27 02:10:14;;;;;;;9.27;4.80;;;;;;;13.38;63.25;101145.13;5072090;28;20045;-68
2023/04/27 02:12:42;;;;;;;12.80;5.22;;;;;;;13.26;63.74;101141.34;5073646;28;20449;-68
2023/04/27 02:15:09;;;;;;;8.20;4.75;;;;;;;13.36;63.33;101138.25;5073620;28;20534;-67
2023/04/27 02:17:38;;;;;;;13.45;5.07;;;;;;;13.41;62.91;101135.34;5072432;28;20514;-68
2023/04/27 02:20:06;;;;;;;9.40;5.07;;;;;;;13.24;63.11;101132.53;5073843;28;20059;-63
2023/04/27 02:22:33;;;;;;;12.13;5.18;;;;;;;13.39;62.98;101135.66;5056789;28;20152;-63
2023/04/27 02:25:01;;;;;;;13.98;5.57;;;;;;;13.31;62.92;101130.94;5071698;28;20056;-65
2023/04/27 02:27:29;;;;;;;9.80;4.97;;;;;;;13.41;62.87;101138.09;5068680;28;20044;-63
2023/04/27 02:29:57;;;;;;;11.07;5.00;;;;;;;13.55;62.36;101136.84;5054160;28;20053;-63
2023/04/27 02:32:25;;;;;;;9.35;5.47;;;;;;;13.44;62.34;101141.03;5088487;28;20049;-67
2023/04/27 02:34:54;;;;;;;15.43;5.53;;;;;;;13.47;62.33;101143.19;5073736;28;20049;-64
2023/04/27 02:37:21;;;;;;;12.95;5.55;;;;;;;13.45;62.42;101141.88;5072112;28;20419;-64
2023/04/27 02:39:49;;;;;;;12.30;5.90;;;;;;;13.35;62.94;101140.22;5057285;28;20056;-63
2023/04/27 02:42:17;;;;;;;11.68;5.65;;;;;;;13.62;62.17;101141.91;5056286;28;20047;-63
2023/04/27 02:44:44;;;;;;;10.30;5.65;;;;;;;13.52;62.12;101134.72;5073921;28;20063;-68
2023/04/27 02:47:11;;;;;;;10.02;5.95;;;;;;;13.37;62.64;101139.91;5073181;28;20052;-68
2023/04/27 02:49:39;;;;;;;12.75;6.47;;;;;;;13.46;62.14;101144.31;5075550;28;20444;-68
2023/04/27 02:52:06;;;;;;;11.10;6.00;;;;;;;13.44;62.52;101152.13;5072806;28;20452;-68
2023/04/27 02:54:34;;;;;;;12.38;6.30;;;;;;;13.35;62.30;101154.03;5057278;28;20053;-68
2023/04/27 02:57:01;;;;;;;12.50;6.00;;;;;;;13.32;62.47;101157.47;5067897;28;20067;-68
2023/04/27 02:59:29;;;;;;;17.92;6.22;;;;;;;13.16;63.39;101153.50;5072912;28;20056;-68
2023/04/27 03:01:56;;;;;;;12.88;6.30;;;;;;;13.21;63.27;101158.91;5071984;28;20424;-68
2023/04/27 03:04:24;;;;;;;9.85;5.90;;;;;;;13.25;62.57;101148.81;5074039;28;20064;-68
2023/04/27 03:06:51;;;;;;;10.82;5.53;;;;;;;13.24;62.61;101151.91;5072608;28;20055;-68
2023/04/27 03:09:18;;;;;;;9.95;5.72;;;;;;;13.21;62.58;101152.56;5075286;28;20059;-67
2023/04/27 03:11:46;;;;;;;9.68;6.03;;;;;;;13.24;62.57;101157.44;5072305;28;20789;-67
2023/04/27 03:14:13;;;;;;;12.93;6.05;;;;;;;13.50;61.86;101155.56;5073902;28;20107;-68
2023/04/27 03:16:42;;;;;;;12.90;6.60;;;;;;;13.57;61.50;101153.94;5072534;28;20048;-70
2023/04/27 03:19:12;;;;;;;14.85;6.18;;;;;;;13.54;61.64;101148.25;5073516;28;20698;-69
2023/04/27 03:21:40;;;;;;;12.38;5.93;;;;;;;13.48;61.53;101157.81;5071410;28;20059;-68
2023/04/27 03:24:08;;;;;;;14.48;5.93;;;;;;;13.49;61.64;101154.72;5075363;28;20044;-69
2023/04/27 03:26:35;;;;;;;12.20;5.53;;;;;;;13.38;61.65;101158.94;5072179;28;20060;-69
2023/04/27 03:29:03;;;;;;;12.75;5.75;;;;;;;13.54;61.57;101151.84;5057007;28;20404;-66
2023/04/27 03:31:30;;;;;;;11.65;6.25;;;;;;;13.56;61.60;101151.50;5073437;28;20056;-68
2023/04/27 03:33:59;;;;;;;12.00;5.72;;;;;;;13.53;61.47;101146.59;5073137;28;20045;-67
2023/04/27 03:36:27;;;;;;;9.77;5.60;;;;;;;13.54;61.05;101154.59;5071425;28;20057;-68
2023/04/27 03:38:54;;;;;;;13.05;6.13;;;;;;;13.47;61.13;101154.25;5073538;28;20403;-68
2023/04/27 03:41:22;;;;;;;13.57;6.63;;;;;;;13.30;61.49;101153.41;5021924;28;20068;-63
2023/04/27 03:43:52;;;;;;;11.38;5.90;;;;;;;13.38;61.54;101153.41;5073078;28;20044;-63
2023/04/27 03:46:19;;;;;;;11.88;6.13;;;;;;;13.48;61.63;101147.56;5071896;28;20045;-67
2023/04/27 03:48:48;;;;;;;13.90;6.72;;;;;;;13.57;60.98;101144.81;5057060;28;20060;-64
2023/04/27 03:51:16;;;;;;;16.92;6.68;;;;;;;13.48;61.37;101146.75;5071730;28;20052;-64
2023/04/27 03:53:45;;;;;;;17.63;7.82;;;;;;;13.42;61.78;101143.31;5072341;28;20048;-68
2023/04/27 03:56:13;;;;;;;14.13;6.78;;;;;;;13.21;62.58;101149.78;5038837;28;20049;-68
2023/04/27 03:58:40;;;;;;;15.45;6.90;;;;;;;13.11;63.33;101148.09;5074227;28;20049;-67
2023/04/27 04:01:30;;;;;;;12.77;7.00;;;;;;;13.14;63.37;101150.25;5069117;28;20064;-69
2023/04/27 04:03:58;;;;;;;17.42;8.20;;;;;;;13.06;63.83;101155.72;5072358;28;20040;-63
2023/04/27 04:06:26;;;;;;;16.38;7.82;;;;;;;12.92;64.68;101152.25;5072617;28;20064;-63
2023/04/27 04:08:55;;;;;;;16.88;8.25;;;;;;;13.01;64.87;101156.66;5054882;28;20131;-68
2023/04/27 04:11:23;;;;;;;16.10;8.07;;;;;;;13.11;64.16;101152.84;5071149;28;20586;-63
2023/04/27 04:13:54;;;;;;;14.93;7.88;;;;;;;13.14;64.06;101152.19;5071927;28;20037;-65
2023/04/27 04:16:21;;;;;;;14.52;7.68;;;;;;;12.99;64.92;101145.09;5071095;28;20399;-63
2023/04/27 04:18:51;;;;;;;13.40;7.95;;;;;;;13.11;64.79;101152.84;5072176;28;20586;-64
2023/04/27 04:21:18;;;;;;;16.95;7.90;;;;;;;12.88;65.19;101151.25;5053526;28;20044;-63
2023/04/27 04:23:45;;;;;;;17.00;8.13;;;;;;;12.89;65.05;101153.69;5072694;28;20479;-64
2023/04/27 04:26:13;;;;;;;15.63;7.65;;;;;;;12.79;65.27;101158.66;5072717;28;20048;-63
2023/04/27 04:28:41;;;;;;;15.32;7.13;;;;;;;13.02;64.13;101157.53;5071839;28;20503;-63
2023/04/27 04:31:08;;;;;;;15.63;7.38;;;;;;;12.91;64.28;101159.72;5041568;28;20056;-64
2023/04/27 04:33:36;;;;;;;17.13;7.57;;;;;;;13.04;64.30;101152.50;5055559;28;20041;-64
2023/04/27 04:36:03;;;;;;;14.18;7.75;;;;;;;12.90;63.99;101158.06;5053832;28;20049;-64
2023/04/27 04:38:32;;;;;;;15.43;7.60;;;;;;;12.92;64.36;101149.47;5066042;28;20060;-65
2023/04/27 04:40:59;;;;;;;14.52;7.35;;;;;;;12.92;64.02;101146.72;5071774;28;20052;-64
2023/04/27 04:43:29;;;;;;;11.88;7.03;;;;;;;12.85;64.27;101146.34;5070832;28;20059;-68
2023/04/27 04:45:57;;;;;;;12.18;7.53;;;;;;;12.89;64.27;101150.09;5070324;28;20047;-68
2023/04/27 04:48:24;;;;;;;12.57;6.85;;;;;;;13.15;63.99;101151.03;5055675;28;20059;-68
2023/04/27 04:50:51;;;;;;;17.60;7.75;;;;;;;13.08;63.36;101150.69;5070332;28;20063;-69
2023/04/27 04:53:19;;;;;;;17.15;8.02;;;;;;;13.05;63.28;101143.03;5071804;28;20040;-66
2023/04/27 04:55:47;;;;;;;12.40;7.47;;;;;;;13.07;62.61;101136.06;5071888;28;20071;-67
2023/04/27 04:58:14;;;;;;;14.45;6.97;;;;;;;13.09;62.48;101130.22;5071789;28;20123;-68
2023/04/27 05:00:42;;;;;;;18.55;7.43;;;;;;;13.21;61.39;101141.47;5071123;28;20052;-68
2023/04/27 05:03:09;;;;;;;13.55;7.35;;;;;;;13.10;61.50;101142.91;5073146;28;20067;-68
2023/04/27 05:05:37;;;;;;;11.95;7.30;;;;;;;12.95;61.59;101146.91;5071559;28;20049;-67
2023/04/27 05:08:04;;;;;;;15.10;7.07;;;;;;;13.06;61.50;101144.66;5073229;28;20056;-67
2023/04/27 05:10:32;;;;;;;14.60;7.55;;;;;;;13.05;61.05;101145.81;5037418;28;20503;-68
2023/04/27 05:12:59;;;;;;;20.63;8.15;;;;;;;12.95;61.05;101155.19;5072352;28;20048;-68
2023/04/27 05:15:27;;;;;;;13.30;7.45;;;;;;;13.08;61.19;101159.81;5072187;28;20059;-68
2023/04/27 05:17:54;;;;;;;13.65;7.32;;;;;;;13.36;60.68;101155.69;5072340;28;20071;-68
2023/04/27 05:20:21;;;;;;;12.95;6.90;;;;;;;13.29;60.29;101155.34;5071788;28;20056;-64
2023/04/27 05:22:49;;;;;;;15.52;7.47;;;;;;;13.23;60.83;101158.59;5072163;28;20056;-68
2023/04/27 05:25:16;;;;;;;15.63;7.68;;;;;;;13.23;60.43;101153.84;5072598;28;20055;-63
2023/04/27 05:27:44;;;;;;;14.38;7.50;;;;;;;13.14;61.10;101157.72;5071906;28;20076;-62
2023/04/27 05:30:12;;;;;;;16.85;7.40;;;;;;;13.11;61.08;101153.63;5072649;28;20349;-64
2023/04/27 05:32:39;;;;;;;17.38;7.95;;;;;;;13.13;60.69;101156.91;5071804;28;20052;-67
2023/04/27 05:35:07;;;;;;;13.82;7.60;;;;;;;13.22;60.06;101149.47;5071898;28;20063;-64
2023/04/27 05:37:34;;;;;;;16.48;7.35;;;;;;;13.24;60.08;101141.66;5071813;28;20131;-63
2023/04/27 05:40:04;;;;;;;16.88;8.32;;;;;;;13.10;59.59;101143.72;5071514;28;20067;-63
2023/04/27 05:42:31;;;;;;;13.35;6.90;;;;;;;13.18;59.67;101142.13;5069229;28;20645;-62
2023/04/27 05:44:59;;;;;;;17.13;6.85;;;;;;;13.22;59.51;101143.94;5072714;28;20048;-64
2023/04/27 05:47:26;;;;;;;15.15;7.35;;;;;;;13.30;59.38;101151.44;5071613;28;20052;-63
2023/04/27 05:49:53;;;;;;;18.48;7.22;;;;;;;13.23;59.16;101141.97;5070961;28;20060;-63
2023/04/27 05:52:21;;;;;;;14.77;7.75;;;;;;;13.02;60.02;101147.25;5071339;28;20048;-65
2023/04/27 05:54:49;;;;;;;14.60;7.32;;;;;;;13.07;60.03;101149.06;5072792;28;20079;-63
2023/04/27 05:57:16;;;;;;;17.13;7.68;;;;;;;13.02;60.24;101144.50;5069258;28;20483;-63
2023/04/27 05:59:43;;;;;;;16.63;8.10;;;;;;;13.05;60.23;101152.16;5071149;28;20055;-64
2023/04/27 06:02:11;;;;;;;17.52;7.43;;;;;;;13.32;59.56;101146.38;5071074;28;20067;-63
2023/04/27 06:04:38;;;;;;;14.77;6.93;;;;;;;13.32;59.22;101142.78;5065901;28;20055;-63
2023/04/27 06:07:13;;;;;;;17.95;7.90;;;;;;;13.54;58.85;101153.78;5069508;28;20071;-64
2023/04/27 06:09:41;;;;;;;14.45;7.30;;;;;;;13.35;59.09;101153.25;5072235;28;20686;-64
2023/04/27 06:12:08;;;;;;;14.70;7.35;;;;;;;13.38;59.39;101152.59;5069907;28;20407;-63
2023/04/27 06:14:36;;;;;;;15.68;7.60;;;;;;;13.12;60.31;101155.28;5072666;28;20064;-63
2023/04/27 06:17:03;;;;;;;22.63;7.68;;;;;;;13.17;60.30;101155.13;5070130;28;20626;-65
2023/04/27 06:19:30;;;;;;;16.65;7.28;;;;;;;13.56;58.85;101149.53;5073400;28;20056;-64
2023/04/27 06:21:58;;;;;;;16.92;7.50;;;;;;;13.45;59.34;101153.75;5073411;28;20056;-63
2023/04/27 06:24:25;;;;;;;13.93;7.07;;;;;;;13.42;59.27;101148.84;5072198;28;20051;-63
2023/04/27 06:26:53;;;;;;;19.73;8.05;;;;;;;13.46;59.24;101149.03;5073108;28;20608;-68
2023/04/27 06:29:20;;;;;;;18.65;7.53;;;;;;;13.26;60.22;101144.09;5074693;28;20083;-67
2023/04/27 06:31:48;;;;;;;14.05;7.50;;;;;;;13.42;60.52;101140.56;5072355;28;20515;-65
2023/04/27 06:34:15;;;;;;;15.77;7.75;;;;;;;13.46;60.19;101151.78;5073450;28;20043;-68
2023/04/27 06:36:43;;;;;;;14.98;8.13;;;;;;;13.56;59.52;101149.53;5073290;28;20055;-66
2023/04/27 06:39:11;;;;;;;14.70;7.28;;;;;;;13.57;59.58;101151.19;5069672;28;20056;-67
2023/04/27 06:41:38;;;;;;;17.33;7.22;;;;;;;13.69;58.87;101152.47;5070900;28;20052;-63
2023/04/27 06:44:17;;;;;;;19.10;7.68;;;;;;;13.82;58.12;101162.63;5064186;28;20049;-63
2023/04/27 06:46:46;;;;;;;16.52;7.32;;;;;;;13.65;58.25;101162.59;5068263;28;20155;-67
2023/04/27 06:49:14;;;;;;;15.15;7.18;;;;;;;13.70;58.64;101163.25;5040102;28;20052;-67
2023/04/27 06:51:42;;;;;;;18.42;8.00;;;;;;;13.72;58.02;101163.72;5056415;28;20060;-68
2023/04/27 06:54:11;;;;;;;18.67;8.02;;;;;;;13.72;57.96;101152.66;5041001;28;20041;-68
2023/04/27 06:56:38;;;;;;;14.30;7.88;;;;;;;13.84;57.69;101149.25;5067208;28;20051;-64
2023/04/27 06:59:05;;;;;;;20.45;7.63;;;;;;;14.05;56.53;101147.47;5053432;28;20057;-63
2023/04/27 07:01:33;;;;;;;24.75;13.10;;;;;;;13.96;57.07;101152.19;5066592;28;20059;-63
2023/04/27 07:04:02;;;;;;;15.30;8.18;;;;;;;14.13;56.52;101158.56;5069176;28;20443;-63
2023/04/27 07:06:30;;;;;;;19.73;12.77;;;;;;;14.16;56.30;101159.84;5069249;28;20056;-66
2023/04/27 07:08:58;;;;;;;19.38;7.70;;;;;;;14.15;55.89;101152.69;5063887;28;20056;-68
2023/04/27 07:11:25;;;;;;;14.40;7.18;;;;;;;14.24;55.32;101147.97;5068426;28;20400;-68
2023/04/27 07:13:53;;;;;;;32.90;10.13;;;;;;;14.03;55.57;101147.00;5071577;28;20059;-64
2023/04/27 07:16:20;;;;;;;20.63;7.63;;;;;;;14.07;54.28;101136.91;5059996;28;20045;-66
2023/04/27 07:18:47;;;;;;;62.60;17.98;;;;;;;14.06;54.84;101133.31;5070282;28;20419;-63
2023/04/27 07:21:16;;;;;;;60.38;15.00;;;;;;;13.99;54.43;101135.75;5066561;28;20052;-64
2023/04/27 07:23:45;;;;;;;78.68;19.23;;;;;;;14.00;55.08;101129.06;5065145;28;20056;-64
2023/04/27 07:26:12;;;;;;;47.40;11.98;;;;;;;14.37;54.41;101130.34;5070318;28;20495;-63
2023/04/27 07:28:40;;;;;;;55.42;12.98;;;;;;;14.62;54.28;101130.31;5069096;28;20056;-67
2023/04/27 07:31:08;;;;;;;31.77;10.52;;;;;;;14.64;54.10;101136.31;5068073;28;20059;-68
2023/04/27 07:33:35;;;;;;;20.58;6.95;;;;;;;14.83;52.41;101143.47;5066150;28;20123;-68
2023/04/27 07:36:04;;;;;;;13.68;6.90;;;;;;;14.75;52.42;101136.78;5065507;28;20040;-68
2023/04/27 07:38:31;;;;;;;13.30;7.15;;;;;;;14.70;52.39;101145.28;5069155;28;20044;-67
2023/04/27 07:41:06;;;;;;;19.65;7.75;;;;;;;14.72;52.04;101136.63;5069203;28;20051;-68
2023/04/27 07:43:34;;;;;;;24.63;8.23;;;;;;;14.58;52.33;101140.44;5061063;28;20055;-68
2023/04/27 07:46:02;;;;;;;27.38;8.15;;;;;;;14.47;52.71;101139.16;5064781;28;20056;-68
2023/04/27 07:48:31;;;;;;;20.83;8.15;;;;;;;14.80;52.82;101135.81;5069816;28;20056;-69
2023/04/27 07:50:58;;;;;;;18.23;6.85;;;;;;;14.93;51.90;101137.53;5053270;28;20057;-69
2023/04/27 07:53:26;;;;;;;12.00;5.93;;;;;;;14.95;51.16;101140.81;5067988;28;20041;-68
2023/04/27 07:55:53;;;;;;;14.85;6.13;;;;;;;14.99;51.17;101133.44;5062188;28;20056;-70
2023/04/27 07:58:21;;;;;;;13.73;7.03;;;;;;;14.97;50.90;101142.13;5066928;28;20041;-70
2023/04/27 08:00:48;;;;;;;28.42;11.48;;;;;;;14.86;49.66;101134.47;5066926;28;20066;-68
2023/04/27 08:03:15;;;;;;;37.70;10.32;;;;;;;14.99;49.64;101136.22;5065957;28;20056;-68
2023/04/27 08:05:43;;;;;;;32.80;10.40;;;;;;;15.33;48.47;101149.94;5065129;28;20047;-68
2023/04/27 08:08:11;;;;;;;24.40;7.78;;;;;;;15.25;48.66;101145.25;5062664;28;20063;-70
2023/04/27 08:10:38;;;;;;;50.78;9.88;;;;;;;15.03;48.71;101143.53;5061574;28;20815;-68
2023/04/27 08:13:08;;;;;;;34.63;8.00;;;;;;;15.04;48.99;101152.69;5063412;28;20757;-68
2023/04/27 08:15:36;;;;;;;24.30;6.63;;;;;;;15.27;48.79;101154.06;5051855;28;20048;-69
2023/04/27 08:18:03;;;;;;;29.80;5.68;;;;;;;15.31;48.64;101147.50;5059222;28;20048;-69
2023/04/27 08:20:30;;;;;;;22.58;7.03;;;;;;;15.40;48.62;101144.69;5064621;28;20055;-69
2023/04/27 08:22:58;;;;;;;33.17;7.40;;;;;;;15.60;48.37;101144.72;5068656;28;20531;-69
2023/04/27 08:25:25;;;;;;;59.28;12.27;;;;;;;15.43;48.13;101144.84;5070745;28;20074;-69
2023/04/27 08:27:53;;;;;;;40.42;8.50;;;;;;;15.27;48.24;101123.53;5061317;28;20057;-69
2023/04/27 08:30:20;;;;;;;26.40;6.90;;;;;;;15.55;47.67;101127.47;5066499;28;20044;-69
2023/04/27 08:32:48;;;;;;;22.00;6.20;;;;;;;15.45;47.75;101116.75;5071861;28;20404;-70
2023/04/27 08:35:15;;;;;;;25.15;6.97;;;;;;;14.90;48.56;101119.63;5066855;28;20406;-69
2023/04/27 08:37:43;;;;;;;18.65;6.63;;;;;;;15.04;49.05;101116.63;5061625;28;20411;-70
2023/04/27 08:40:10;;;;;;;28.20;5.97;;;;;;;15.26;48.68;101119.94;5062212;28;20538;-70
2023/04/27 08:42:41;;;;;;;31.38;7.95;;;;;;;15.37;48.69;101114.81;5062009;28;20068;-69
2023/04/27 08:45:08;;;;;;;27.67;6.13;;;;;;;15.53;48.58;101127.78;5064426;28;20040;-69
2023/04/27 08:47:37;;;;;;;17.63;5.05;;;;;;;15.45;49.20;101123.13;5068685;28;20043;-67
2023/04/27 08:50:11;;;;;;;11.48;5.03;;;;;;;15.78;48.26;101114.88;5046782;28;20411;-67
2023/04/27 08:52:38;;;;;;;14.85;5.05;;;;;;;15.60;48.10;101116.16;5048969;28;20045;-67
2023/04/27 08:55:07;;;;;;;9.05;4.00;;;;;;;15.77;48.10;101111.31;5061659;28;20049;-68
2023/04/27 08:57:34;;;;;;;14.80;7.07;;;;;;;15.88;48.15;101117.28;5062471;28;20059;-67
2023/04/27 09:00:12;;;;;;;21.65;9.45;;;;;;;16.11;47.88;101112.16;5069257;28;20056;-68
2023/04/27 09:02:46;;;;;;;19.40;5.40;;;;;;;16.41;46.96;101099.75;5059999;28;20045;-68
2023/04/27 09:05:18;;;;;;;14.07;4.75;;;;;;;16.39;47.12;101105.66;5067130;28;20506;-68
2023/04/27 09:08:15;;;;;;;10.77;4.70;;;;;;;16.24;47.28;101111.06;5066469;28;20048;-69
2023/04/27 09:10:43;;;;;;;13.80;5.30;;;;;;;16.18;47.55;101102.09;5055750;28;20772;-67
2023/04/27 09:13:11;;;;;;;15.98;4.97;;;;;;;16.52;47.00;101103.75;5066990;28;20049;-67
2023/04/27 09:15:45;;;;;;;8.43;4.45;;;;;;;16.50;47.07;101108.84;5059705;28;20036;-68
2023/04/27 09:18:19;;;;;;;15.52;4.40;;;;;;;16.66;47.26;101107.88;5057792;28;20048;-67
2023/04/27 09:20:49;;;;;;;15.98;5.60;;;;;;;16.39;47.29;101114.00;5059447;28;20097;-68
2023/04/27 09:23:33;;;;;;;11.53;4.83;;;;;;;16.59;47.17;101113.19;5058887;28;20052;-67
2023/04/27 09:26:21;;;;;;;11.60;4.50;;;;;;;16.45;47.64;101115.44;5046361;28;20040;-67
2023/04/27 09:28:51;;;;;;;11.20;4.75;;;;;;;16.50;47.49;101111.63;5061858;28;20476;-67
2023/04/27 09:31:19;;;;;;;12.50;4.90;;;;;;;16.46;47.55;101113.44;5064179;28;20048;-67
2023/04/27 09:33:53;;;;;;;18.40;5.43;;;;;;;16.60;47.36;101111.19;5055082;28;20048;-67
2023/04/27 09:36:21;;;;;;;16.25;4.43;;;;;;;16.54;47.95;101113.41;5069368;28;20067;-68
2023/04/27 09:38:50;;;;;;;9.65;4.03;;;;;;;16.62;48.03;101097.75;5064518;28;20053;-68
2023/04/27 09:41:20;;;;;;;9.05;4.63;;;;;;;16.61;47.66;101098.91;5068193;28;20430;-69
2023/04/27 09:43:48;;;;;;;9.05;4.18;;;;;;;16.58;47.72;101105.19;5064080;28;20049;-68
2023/04/27 09:46:15;;;;;;;9.90;4.35;;;;;;;16.82;48.06;101094.09;5070296;28;20492;-67
2023/04/27 09:48:42;;;;;;;10.48;3.72;;;;;;;16.94;47.37;101088.53;5065313;28;20513;-69
2023/04/27 09:51:10;;;;;;;7.60;4.22;;;;;;;17.40;47.07;101093.63;5065401;28;20052;-68
2023/04/27 09:53:55;;;;;;;10.77;4.30;;;;;;;17.35;46.27;101093.03;5072819;28;20478;-70
2023/04/27 09:56:48;;;;;;;13.27;4.35;;;;;;;17.13;47.41;101094.34;5064234;28;20052;-70
2023/04/27 09:59:45;;;;;;;13.02;4.03;;;;;;;16.97;47.86;101092.59;5064805;28;20069;-70
2023/04/27 10:02:15;;;;;;;24.08;5.97;;;;;;;17.26;47.84;101097.94;5062468;28;20059;-70
2023/04/27 10:05:01;;;;;;;15.85;5.10;;;;;;;17.32;47.56;101099.31;5057725;28;20040;-69
2023/04/27 10:07:30;;;;;;;11.80;4.40;;;;;;;17.37;47.36;101093.50;5069589;28;20056;-69
2023/04/27 10:10:01;;;;;;;11.32;6.35;;;;;;;17.70;46.98;101094.16;5060878;28;20527;-70
2023/04/27 10:12:35;;;;;;;13.18;3.63;;;;;;;17.67;46.82;101092.91;5070560;28;20052;-69
2023/04/27 10:15:16;;;;;;;7.18;3.20;;;;;;;17.50;47.94;101084.00;5058149;28;20044;-69
2023/04/27 10:17:48;;;;;;;12.88;4.60;;;;;;;17.33;48.06;101078.69;5071578;28;20063;-68
2023/04/27 10:20:16;;;;;;;14.05;4.00;;;;;;;17.35;47.46;101076.31;5072094;28;20499;-68
2023/04/27 10:22:46;;;;;;;13.90;3.75;;;;;;;17.47;47.75;101068.81;5074835;28;20056;-69
2023/04/27 10:25:16;;;;;;;22.67;6.13;;;;;;;17.56;47.64;101069.47;5088241;28;20052;-67
2023/04/27 10:28:01;;;;;;;28.17;6.13;;;;;;;17.46;48.33;101069.97;5073746;28;20302;-66
2023/04/27 10:30:38;;;;;;;18.33;4.47;;;;;;;17.87;46.97;101060.44;5068862;28;20048;-68
2023/04/27 10:33:09;;;;;;;12.82;3.78;;;;;;;17.75;48.00;101072.44;5065169;28;20044;-69
2023/04/27 10:35:38;;;;;;;14.43;3.55;;;;;;;17.83;47.64;101067.91;5061615;28;20079;-66
2023/04/27 10:38:20;;;;;;;8.32;3.25;;;;;;;17.65;47.75;101075.75;5072110;28;20085;-66
2023/04/27 10:41:01;;;;;;;9.13;4.15;;;;;;;17.74;47.94;101070.84;5065290;28;20064;-68
2023/04/27 10:43:31;;;;;;;11.02;3.97;;;;;;;17.83;47.50;101079.88;5067082;28;20599;-69
2023/04/27 10:46:11;;;;;;;11.70;3.75;;;;;;;17.86;47.09;101072.78;5067835;28;20052;-68
2023/04/27 10:48:43;;;;;;;7.72;3.65;;;;;;;17.89;47.14;101058.13;5067976;28;20052;-69
2023/04/27 10:51:15;;;;;;;7.47;3.88;;;;;;;17.92;46.75;101066.59;5061070;28;20060;-68
2023/04/27 10:53:51;;;;;;;15.38;4.10;;;;;;;17.93;47.17;101062.66;5066838;28;20047;-68
2023/04/27 10:56:19;;;;;;;10.75;4.70;;;;;;;17.59;47.70;101068.78;5078160;28;20052;-68
2023/04/27 10:58:46;;;;;;;15.05;5.53;;;;;;;17.62;48.22;101061.69;5071699;28;20155;-68
2023/04/27 11:01:25;;;;;;;40.40;8.30;;;;;;;17.53;47.73;101059.06;5072942;28;20486;-69
2023/04/27 11:03:57;;;;;;;31.70;8.27;;;;;;;17.66;47.61;101059.84;5073877;28;20747;-69
2023/04/27 11:06:27;;;;;;;28.33;7.13;;;;;;;17.64;47.75;101051.81;5069412;28;20037;-69
2023/04/27 11:08:55;;;;;;;30.87;7.53;;;;;;;17.95;47.89;101034.41;5071696;28;20052;-68
2023/04/27 11:11:23;;;;;;;15.77;4.70;;;;;;;18.18;46.68;101038.25;5068585;28;20311;-69
2023/04/27 11:13:54;;;;;;;9.90;3.67;;;;;;;18.39;46.21;101040.81;5065464;28;20052;-69
2023/04/27 11:16:22;;;;;;;9.82;5.00;;;;;;;18.69;45.79;101040.03;5070046;28;20048;-68
2023/04/27 11:18:49;;;;;;;8.05;3.47;;;;;;;19.14;43.88;101031.19;5076446;28;20048;-68
2023/04/27 11:21:19;;;;;;;11.13;5.88;;;;;;;19.23;43.61;101020.59;5069336;28;20518;-67
2023/04/27 11:23:46;;;;;;;11.63;5.25;;;;;;;19.20;43.63;101009.34;5068065;28;20138;-68
2023/04/27 11:26:22;;;;;;;7.65;3.42;;;;;;;19.08;43.83;101013.09;5063987;28;20045;-67